HGEU_C1

2016-07-16 to 2016-07-30

Task 7

2016-07-27 Task 7

Race to Goal 93.2 km

Provisional

No Leg Dist. Id Radius Open Close Coordinates Altitude
1 0.0 km D01141 400 m 12:00 15:20 Lat: 41.34351 Lon: 21.25678 1415 m
2 SS 3.4 km B34058 34000 m 13:20 19:30 Lat: 41.08547 Lon: 21.37005 581 m
3 29.5 km B34058 8000 m 13:20 19:30 Lat: 41.08547 Lon: 21.37005 581 m
4 51.0 km B17085 6000 m 13:20 19:30 Lat: 41.37883 Lon: 21.25905 850 m
5 66.1 km D03120 4000 m 13:20 19:30 Lat: 41.39839 Lon: 21.53186 1202 m
6 82.5 km B29059 7000 m 13:20 19:30 Lat: 41.17803 Lon: 21.39922 593 m
7 ES 92.6 km A10062 1000 m 13:20 19:30 Lat: 41.33639 Lon: 21.45019 620 m
8 93.2 km A10062 400 m 13:20 19:30 Lat: 41.33639 Lon: 21.45019 620 m
StartGate(s): 13:20, 13:40

# Id Name Nat Glider Sponsor SS ES Time km/h Distance Dist.
Points
Lead.
Points
Time
Points
Arr.
Pos.
Points
Total
1 141 Christian Ciech M ITA Icaro 2000 Laminar AeCI - Icaro 2000 - Woody Valley - GForce 13:20:00 15:17:20 01:57:20 45.6 93.22 369.8 110.3 441.1 78.8 1000
2 9999 Attila Bertok M HUN Moyes RX5 13:20:00 15:17:51 01:57:51 45.4 93.22 369.8 79.9 426.3 75.9 952
3 2112 Olav Opsanger M NOR Moyes Litespeed RX3.5 Technora Moyes 13:20:00 15:17:58 01:57:58 45.4 93.22 369.8 81.9 424.2 73.2 949
4 189 Petr Benes M CZE aeros combat 14.2 09 Houska a Douda pasířství, LAA CR 13:20:00 15:18:03 01:58:03 45.3 93.22 369.8 77.6 422.7 70.5 941
5 666 Fredy Bircher M SUI Moyes Litespeed RX3.5 SHV 13:20:00 15:18:41 01:58:41 45.1 93.22 369.8 82.1 413.0 67.9 933
6 79 Evgen Lysenko M UKR Aeros Combat GT 12.7 Aeros, FireFly 13:20:00 15:18:50 01:58:50 45.0 93.22 369.8 72.0 411.0 65.4 918
7 187 Dan Vyhnalik M CZE Aeros Combat 13.5 LAA CR 13:20:00 15:19:31 01:59:31 44.8 93.22 369.8 76.5 402.4 63.0 912
8 201 Alessandro Ploner M ITA icaro laminar z9 Aero Club D'Italia, Adidas 13:20:00 15:21:01 02:01:01 44.2 93.22 369.8 94.7 386.2 58.4 909
9 33 Petr Polach M CZE Aeros Combat gt 13.5 LAA CR, ISIT, SkyDrop 13:20:00 15:20:58 02:00:58 44.2 93.22 369.8 75.3 386.7 60.7 893
10 52 Anton Struganov M RUS Moyes Litespeed RX 13:20:00 15:21:44 02:01:44 44.0 93.22 369.8 79.4 379.3 56.3 885
11 104 Zac Majors M USA Wills Wing T2C 144 Wills Wing, Flytec 13:20:00 15:24:01 02:04:01 43.1 93.22 369.8 91.4 359.5 50.2 871
12 2 Endre Kovacs M HUN Aeros Combat GT 13,5 13:20:00 15:22:31 02:02:31 43.7 93.22 369.8 70.9 372.2 54.2 867
13 124 Balazs Ujhelyi M HUN Moyes RX4 13:20:00 15:22:32 02:02:32 43.7 93.22 369.8 72.2 372.1 52.1 866
14 6969 Suan Selenati M ITA WILLS WING T2C AeCI - FRIULI VENEZIA GIULIA 13:20:00 15:24:32 02:04:32 43.0 93.22 369.8 86.6 355.3 46.5 858
15 9 Raimund Kaiser M AUT Icaro 2000 Laminar 13.7 13:20:00 15:24:26 02:04:26 43.0 93.22 369.8 81.1 356.1 48.3 855
16 8 Carl Wallbank M GBR Moyes RX3.5 Moyes UK 13:20:00 15:25:58 02:05:58 42.5 93.22 369.8 71.5 344.3 43.1 829
16 7791 Eduardo Oliveira M BRA WW T2C CORINTHIANS 13:20:00 15:25:57 02:05:57 42.5 93.22 369.8 70.5 344.4 44.7 829
18 169 Antoine Boisselier M FRA ICARO 2000 LAMINAR Skyline Salomon Bipbip Adidas Eyewear 13:20:00 15:28:12 02:08:12 41.7 93.22 369.8 89.1 328.2 39.9 827
18 3017 Luke Nicol M GBR Moyes Rx4 Cross country, rotor uk 13:20:00 15:26:14 02:06:14 42.4 93.22 369.8 73.0 342.3 41.5 827
20 30 Franz Herrmann M SUI Aeros Combat 13.5 Herrmann Holzbau GmbH 13:20:00 15:28:57 02:08:57 41.5 93.22 369.8 88.4 323.1 38.4 820
21 88 Peter Neuenschwander M SUI AEROS Combat C 13:20:00 15:29:01 02:09:01 41.5 93.22 369.8 88.1 322.6 37.0 818
22 171 Filippo Oppici M ITA Wills Wing T2C 144 AeCI 13:20:00 15:31:09 02:11:09 40.8 93.22 369.8 86.2 308.6 35.7 800
23 8008 Grant Crossingham M GBR Moyes RX3.5 13:20:00 15:31:28 02:11:28 40.7 93.22 369.8 87.2 306.6 33.1 797
24 108 Primoz Gricar M GER Aeros Combat 13,5 C Aeros 13:20:00 15:32:23 02:12:23 40.4 93.22 369.8 85.4 300.8 32.0 788
25 24 Davide Guiducci M ITA Icaro 2000 Laminar 13.2 A&C d'Italia Icaro 2000 Woody Walley 13:20:00 15:31:11 02:11:11 40.8 93.22 369.8 71.5 308.4 34.4 784
26 22 Christian Preininger M AUT Moyes Litespeed RX 3 www.fetz-anger.at 13:20:00 15:32:49 02:12:49 40.3 93.22 369.8 83.7 298.2 30.8 783
27 13 Kajo Clauss M GER Aeros 12,4 GT 13:20:00 15:33:49 02:13:49 40.0 93.22 369.8 82.3 292.1 28.8 773
28 20 Christian Baertschi M SUI Aeros Combat 13.5 C Didu 13:20:00 15:34:36 02:14:36 39.8 93.22 369.8 82.5 287.4 26.0 766
29 35 Oliver Chitty M GBR Moyes Rx5 MoyesUK, CrossCountry 13:20:00 15:33:17 02:13:17 40.1 93.22 369.8 61.7 295.3 29.8 757
30 123 Roland Woehrle M GER Moyes Litespeed RX 3.5 skyline sparkasse haslach/zell 13:20:00 15:36:48 02:16:48 39.1 93.22 369.8 82.7 274.6 23.7 751
31 7777 Jiri Gut M CZE Wills Wing T2C LAA 13:20:00 15:34:31 02:14:31 39.8 93.22 369.8 62.6 287.9 26.9 747
32 4564 Matjaz Klemencic M SLO Moyes Litespeed RX Red Bull, Naviter, Gloryfy 13:20:00 15:34:01 02:14:01 39.9 93.22 369.8 56.4 290.9 27.8 745
33 1234 Tom Weissenberger M AUT Moyes Litespeed RX3.5 TechnoraSpok Westover Companies/Moyes/Skyline/Cam4Pro/Naviter 13:20:00 15:38:44 02:18:44 38.6 93.22 369.8 83.9 263.7 22.4 740
34 16 Mario Alonzi M FRA AEROS AEROS AEROS 13:20:00 15:38:08 02:18:08 38.7 93.22 369.8 77.1 267.1 23.0 737
35 333 Arne Tanzer M NED Flying Dutchman, Woody Valley 13:20:00 15:36:12 02:16:12 39.3 93.22 369.8 56.9 278.0 25.2 730
36 7786 Stanislav Galovec M SLO Litespeed Rs 13:20:00 15:36:43 02:16:43 39.1 93.22 369.8 53.4 275.1 24.4 723
37 11 Nikola Barakovski M MKD Aeros Combat GT 13,7 13:20:00 15:46:27 02:26:27 36.5 93.22 369.8 66.1 223.3 21.2 680
38 120 Pedro L. Garcia M ESP Wills Wing T2C 144 DIGIFLY VARIO-GPS / WILLS WING 13:20:00 15:44:15 02:24:15 37.1 93.22 369.8 53.0 234.4 21.8 679
39 6114 Dave Matthews M GBR Moyes RX3.5 Skybean 13:20:00 15:47:22 02:27:22 36.3 93.22 369.8 49.9 218.7 20.7 659
40 7775 Doenhuber Gerd M GER Moyes RX3.5 2015 Skyline Flightgear 13:40:00 16:02:03 02:22:03 37.7 93.22 369.8 24.0 245.8 18.2 658
41 67 Peter Kejzar M SLO Aeros Combat 09 - 13:20:00 15:47:57 02:27:57 36.2 93.22 369.8 41.1 215.9 20.2 647
42 1111 Michele Perlo M ITA WW T2C 144 13:20:00 15:57:29 02:37:29 34.0 93.22 369.8 49.4 171.3 19.7 610
43 7785 Franc Peternel M SLO WillsWing T2c 13:20:00 15:57:40 02:37:40 33.9 93.22 369.8 47.8 170.4 19.3 607
44 78 Gijs Wanders M NED Wills Wing T2C 154 - 13:20:00 15:58:41 02:38:41 33.7 93.22 369.8 36.5 165.9 18.9 591
45 39 Gordon Rigg M GBR Moyes Rx3.5 Skybean 13:20:00 16:00:36 02:40:36 33.3 93.22 369.8 40.3 157.5 18.5 586
46 26 Tullio Gervasoni M ITA Wills Wing T2C 144 AeCI 13:20:00 16:04:13 02:44:13 32.6 93.22 369.8 42.6 141.9 17.6 572
47 3 Jochen Zeischka M BEL Moyes Litespeed RX4 Adidas Eyewear, BMW 13:40:00 16:14:46 02:34:46 34.6 93.22 369.8 183.6 16.3 570
48 23 Miroslav Cap M CZE Wills Wing T2c LAA ČR 13:20:00 16:04:49 02:44:49 32.5 93.22 369.8 41.9 139.3 17.4 568
49 233 Mario Campanella M NED Wills Wing T2C 144 me, myself and I 13:20:00 16:04:59 02:44:59 32.4 93.22 369.8 26.1 138.6 17.1 552
50 6738 Joost Eertman M NED Icaro Laminar 13:20:00 16:03:39 02:43:39 32.7 93.22 369.8 14.2 144.3 17.9 546
51 56 Jiri Nadvornik M CZE WW T2C LAA 13:20:00 16:10:48 02:50:48 31.3 93.22 369.8 41.0 114.5 16.6 542
52 116 Ataulfo J Fernandez Montero M ESP Wills Wing T2C 144c JUAKIAIR 13:20:00 16:08:35 02:48:35 31.7 93.22 369.8 19.0 123.6 16.9 529
53 111 Tschurnig Guenther M AUT Icaro Icaro 2000 Z9 14.1 Wirth 13:40:00 16:26:51 02:46:51 32.1 93.22 369.8 7.2 130.8 15.9 524
54 7780 Elek Czigler M HUN 13:20:00 16:12:10 02:52:10 31.1 93.22 369.8 23.8 108.9 16.4 519
54 17 Francois ISOARD M FRA ww t2c144 ffvl 13:20:00 16:10:23 02:50:23 31.4 93.22 369.8 16.2 116.2 16.8 519
56 222 Daniel Martin Mota M ESP Wills Wing T2C 144 13:20:00 16:16:00 02:56:00 30.4 93.22 369.8 20.7 93.6 16.2 500
57 83 Brad Porter M AUS Moyes RX3.5 13:20:00 16:16:00 02:56:00 30.4 93.22 369.8 19.1 93.6 16.2 499
58 10 Dimitrios Ioannidis M GRE Wills Wing T2C 144 www.livetrack24.com 13:20:00 16:19:59 02:59:59 29.7 93.22 369.8 25.9 78.1 15.9 490
59 42 Sasha Serebrennikova F RUS Moyes Litespeed RX3 AVIONICUS 13:20:00 16:19:38 02:59:38 29.8 93.22 369.8 19.3 79.4 16.0 485
60 777 Konstantin Lukyanov M RUS Moyes Litespeed rx 13:20:00 16:41:26 03:21:26 26.6 93.22 369.8 10.2 15.8 396
61 2433 Emiel Jansen M NED icaro2000 laminar https://www.mooietenten.nl 13:20:00 82.06 347.7 23.7 371
62 59 Antonio Leton M ESP aeros combat gt lc arq 13:20:00 70.78 317.1 317
63 64 Coen Jansen M NED Wils Wing T2C 154 13:40:00 65.96 303.4 303
64 21 Laszlo Okros M HUN Moyes Litespeed S3.5 13:20:00 65.30 301.1 301
65 57 Damien Zahn M SUI Moyes Litespeed RX3 Swiss Olympic 13:20:00 57.25 268.4 0.2 269
66 5 Canberg Ozveren M TUR AEROS Combat 09 GT - 13.2 Turkish Aeronautical Association 13:20:00 48.71 239.7 240
67 8018 Veselin Jeliazkov M BUL 13:20:00 48.30 238.3 238
68 101 Julia Burlachenko F UKR Aeros Combat GT 12,4 13:40:00 44.48 222.7 223
69 1000 Janez Grm M SLO Aeros gt 13.2 udarnik 13:20:00 36.70 190.3 190
70 8016 Ivan Brovc M SLO 13:20:00 31.06 171.1 171
71 71 Vollmer Achim M GER Aeros GT Skyline Flightgear 13:40:00 25.42 151.6 152
71 4 Kamil Demirkan M TUR Aeros Combat 09 GT 13,2 Turkish Aeronautical Association 13:40:00 25.53 152.1 152
73 74 Eric Mathurin M FRA MOYES RS 3.5 13:20:00 25.21 150.6 151
74 6 Gennadiy Khramov M RUS WW T2C 13:40:00 22.42 136.4 136
75 667 Thomas Fraissl M AUT Moyes Litespeed RX 13:20:00 17.54 109.8 110
76 99 Alen Milosevic M CRO aeros combatLo8 14 13:20:00 15.97 101.0 101
77 7 Yevgen Bublyk M UKR Aeros Combat GT 12.4 13:20:00 15.12 95.6 96
78 28 Attila Kis M HUN Aeros Combat 13:20:00 10.06 66.7 67
79 70 Hiroshi Onuma M JPN ICARO2000 Laminar 13.7 nasa 7.00 51.7 52
79 31 Laurent Thevenot M FRA WW T2C La mouette 7.00 51.7 52
79 144 Evangelos Papakostas M GRE Wills Wing T2C 144 7.00 51.7 52
79 14 Oleg Matvieiev M UKR Aeros Combat GT 7.00 51.7 52
79 69 Saulius Guobuzas M LTU Moyes Litespeed RS 4 LSPSF.LT, AVEC LIT 7.00 51.7 52
84 100 Justinas Pleikys M LTU MOYES RX5 LSPSF.LT DNF 0.0 0
84 156 Beat Howald M SUI Wills-Wing T2C 144 Paratte Optique swiss olympic DNF 0.0 0

Notes

Id Name Note
100 Justinas Pleikys On his request

Pilots absent from task (ABS)

Id Name
18 Sander van Schaik
19 Lyubomyr Temnyk
7788 Dimitar Halachev

Pilots not yet processed (NYP)

Id Name

Task statistics

param value
ss_distance 89.187
task_distance 93.215
launch_to_ess_distance 92.614
no_of_pilots_present 85
no_of_pilots_flying 83
no_of_pilots_lo 23
no_of_pilots_reaching_nom_dist 62
no_of_pilots_reaching_es 60
no_of_pilots_reaching_goal 60
sum_flown_distance 6308.815
best_dist 93.215
best_time 1.95555555555556
worst_time 3.35722222222222
no_of_pilots_in_competition 88
no_of_pilots_landed_before_stop 0
sum_dist_over_min 5754.835
sum_real_dist_over_min 5754.835
sum_flown_distances 6308.815
best_real_dist 93.215
last_start_time 2016-07-27T13:40:00+02:00
first_start_time 2016-07-27T13:20:00+02:00
first_finish_time 2016-07-27T15:17:20+02:00
max_time_to_get_time_points 3.35396735311576
no_of_pilots_with_time_points 59
goalratio 0.72289156626506
arrival_weight 0.0787743950107295
departure_weight 0
leading_weight 0.110284153015021
time_weight 0.441136612060085
distance_weight 0.369804839914164
smallest_leading_coefficient 1.29758014944009
available_points_distance 369.804839914164
available_points_time 441.136612060085
available_points_departure 0
available_points_leading 110.284153015021
available_points_arrival 78.7743950107295
time_validity 1
launch_validity 1
distance_validity 1
stop_validity 1
day_quality 1
ftv_day_validity 1
time_points_stop_correction 0

Scoring formula settings

param value
id GAP2015
min_dist 7
nom_dist 70
nom_time 1.5
nom_launch 0.96
nom_goal 0.3
day_quality_override 0
bonus_gr 5
jump_the_gun_factor 3
jump_the_gun_max 300
normalize_1000_before_day_quality 0
time_points_if_not_in_goal 0.8
use_1000_points_for_max_day_quality 0
use_arrival_position_points 1
use_arrival_time_points 0
use_departure_points 0
use_difficulty_for_distance_points 1
use_distance_points 1
use_distance_squared_for_LC 1
use_leading_points 1
use_semi_circle_control_zone_for_goal_line 0
use_time_points 1
final_glide_decelerator none
no_final_glide_decelerator_reason
min_time_span_for_valid_task 90
score_back_time 15
scoring_altitude qnh
qnh_setting 1020.00
Report created: 2016-07-27T22:32:47+02:00